Terminal Aerodrome Forecast
Issued by NWS Lake Charles, LA

Home | Current Version | Previous Version | Text Only | Print | Product List | Glossary On
Versions: 1 2 3 4 5 6 7 8 9 10 11 12 13 14 15
415
FTUS44 KLCH 210520
TAFARA
TAF
KARA 210520Z 2106/2206 10005KT P6SM SCT060
     FM211300 09003KT P6SM BKN050
     FM220000 02003KT P6SM BKN025=

USA.gov is the U.S. government's official web portal to all federal, state and local government web resources and services.